createdAt,value
2023-04-21T00:02:24.684Z,101075.51
2023-04-21T00:04:53.129Z,101080.34
2023-04-21T00:07:21.798Z,101074.33
2023-04-21T00:09:49.799Z,101070.90
2023-04-21T00:12:17.827Z,101072.66
2023-04-21T00:14:45.812Z,101067.53
2023-04-21T00:17:13.789Z,101067.83
2023-04-21T00:19:41.720Z,101062.46
2023-04-21T00:22:13.551Z,101066.45
2023-04-21T00:24:41.557Z,101068.67
2023-04-21T00:27:09.489Z,101069.00
2023-04-21T00:29:37.734Z,101062.98
2023-04-21T00:32:09.677Z,101044.84
2023-04-21T00:34:37.852Z,101047.39
2023-04-21T00:37:05.798Z,101039.41
2023-04-21T00:39:33.790Z,101019.86
2023-04-21T00:42:02.676Z,101019.86
2023-04-21T00:44:30.728Z,101008.55
2023-04-21T00:46:58.819Z,101003.19
2023-04-21T00:49:27.118Z,101002.34
2023-04-21T00:51:55.102Z,101013.98
2023-04-21T00:54:23.065Z,101027.54
2023-04-21T00:56:51.031Z,101033.82
2023-04-21T00:59:19.248Z,101035.52
2023-04-21T01:01:47.821Z,101036.93
2023-04-21T01:04:15.880Z,101039.28
2023-04-21T01:06:44.300Z,101035.26
2023-04-21T01:09:14.044Z,101038.95
2023-04-21T01:11:42.035Z,101042.62
2023-04-21T01:14:09.987Z,101030.39
2023-04-21T01:16:38.244Z,101037.09
2023-04-21T01:19:07.315Z,101037.91
2023-04-21T01:21:44.255Z,101039.61
2023-04-21T01:24:13.263Z,101043.83
2023-04-21T01:26:41.362Z,101042.32
2023-04-21T01:29:09.386Z,101055.89
2023-04-21T01:31:37.382Z,101052.13
2023-04-21T01:34:06.279Z,101038.79
2023-04-21T01:36:34.334Z,101038.46
2023-04-21T01:39:02.630Z,101052.95
2023-04-21T01:41:30.590Z,101052.13
2023-04-21T01:43:58.650Z,101049.81
2023-04-21T01:46:26.664Z,101047.81
2023-04-21T01:48:54.811Z,101036.47
2023-04-21T01:51:22.856Z,101038.79
2023-04-21T01:53:50.856Z,101039.61
2023-04-21T01:56:20.246Z,101046.12
2023-04-21T01:58:48.227Z,101050.10
2023-04-21T02:01:16.259Z,101051.80
2023-04-21T02:03:44.481Z,101059.16
2023-04-21T02:06:12.645Z,101055.17
2023-04-21T02:08:40.656Z,101046.87
2023-04-21T02:11:08.578Z,101045.72
2023-04-21T02:13:37.220Z,101040.88
2023-04-21T02:16:13.384Z,101045.10
2023-04-21T02:18:42.802Z,101046.77
2023-04-21T02:21:10.815Z,101037.41
2023-04-21T02:23:38.833Z,101035.95
2023-04-21T02:26:07.126Z,101028.27
2023-04-21T02:28:35.160Z,101019.23
2023-04-21T02:31:03.162Z,101019.86
2023-04-21T02:33:31.657Z,101012.30
2023-04-21T02:35:59.700Z,101023.13
2023-04-21T02:38:27.765Z,101028.27
2023-04-21T02:40:55.733Z,101020.71
2023-04-21T02:43:23.708Z,101021.85
2023-04-21T02:45:51.879Z,101016.52
2023-04-21T02:48:24.344Z,101016.52
2023-04-21T02:50:54.394Z,101023.03
2023-04-21T02:53:22.482Z,101028.88
2023-04-21T02:55:50.487Z,101033.72
2023-04-21T02:58:18.536Z,101050.46
2023-04-21T03:00:46.791Z,101050.10
2023-04-21T03:03:16.711Z,101039.94
2023-04-21T03:05:44.871Z,101043.40
2023-04-21T03:08:12.981Z,101046.24
2023-04-21T03:10:41.190Z,101045.72
2023-04-21T03:13:09.366Z,101048.24
2023-04-21T03:15:37.500Z,101043.40
2023-04-21T03:18:05.739Z,101051.58
2023-04-21T03:20:33.795Z,101038.56
2023-04-21T03:23:01.822Z,101044.45
2023-04-21T03:25:30.133Z,101033.72
2023-04-21T03:27:58.185Z,101037.94
2023-04-21T03:30:27.735Z,101028.27
2023-04-21T03:32:57.049Z,101034.77
2023-04-21T03:35:25.153Z,101028.27
2023-04-21T03:37:53.168Z,101028.27
2023-04-21T03:40:21.110Z,101031.11
2023-04-21T03:42:49.055Z,101025.98
2023-04-21T03:45:17.278Z,101013.45
2023-04-21T03:47:45.319Z,101019.34
2023-04-21T03:50:13.320Z,101018.19
2023-04-21T03:52:41.565Z,101013.02
2023-04-21T03:55:13.187Z,101010.09
2023-04-21T03:57:44.372Z,101013.74
2023-04-21T04:00:13.071Z,101020.61
2023-04-21T04:02:41.464Z,101024.27
2023-04-21T04:05:09.740Z,101021.95
2023-04-21T04:07:37.840Z,101033.52
2023-04-21T04:10:06.013Z,101028.13
2023-04-21T04:12:33.941Z,101023.33
2023-04-21T04:15:02.676Z,101019.86
2023-04-21T04:17:30.736Z,101011.85
2023-04-21T04:19:58.787Z,101003.67
2023-04-21T04:22:26.854Z,101006.81
2023-04-21T04:24:54.801Z,101000.30
2023-04-21T04:27:22.794Z,101001.48
2023-04-21T04:29:50.891Z,100996.28
2023-04-21T04:32:18.991Z,100988.96
2023-04-21T04:34:46.987Z,100979.28
2023-04-21T04:37:15.128Z,100971.11
2023-04-21T04:39:43.202Z,100967.45
2023-04-21T04:42:11.479Z,100973.59
2023-04-21T04:44:39.532Z,100969.12
2023-04-21T04:47:08.932Z,100975.30
2023-04-21T04:49:37.130Z,100969.64
2023-04-21T04:52:05.211Z,100984.45
2023-04-21T04:54:33.209Z,100985.10
2023-04-21T04:57:01.280Z,100983.41
2023-04-21T04:59:30.288Z,100990.95
2023-04-21T05:01:58.741Z,101003.97
2023-04-21T05:04:27.592Z,100993.48
2023-04-21T05:06:56.005Z,100997.37
2023-04-21T05:09:23.990Z,101000.21
2023-04-21T05:11:51.931Z,101000.50
2023-04-21T05:14:20.176Z,100999.03
2023-04-21T05:16:48.544Z,101006.39
2023-04-21T05:19:18.657Z,101007.76
2023-04-21T05:21:46.895Z,101010.90
2023-04-21T05:24:14.955Z,101012.93
2023-04-21T05:26:43.212Z,101007.23
2023-04-21T05:29:12.600Z,101004.59
2023-04-21T05:31:40.703Z,101013.13
2023-04-21T05:34:08.747Z,101020.45
2023-04-21T05:36:37.107Z,101019.92
2023-04-21T05:39:05.171Z,101015.61
2023-04-21T05:41:33.173Z,100999.42
2023-04-21T05:44:01.205Z,100996.28
2023-04-21T05:46:29.279Z,101004.46
2023-04-21T05:48:57.354Z,101017.51
2023-04-21T05:51:25.267Z,101019.17
2023-04-21T05:53:53.371Z,101019.92
2023-04-21T05:56:21.532Z,101019.59
2023-04-21T05:58:49.542Z,101009.92
2023-04-21T06:01:17.555Z,101009.92
2023-04-21T06:03:45.945Z,101014.14
2023-04-21T06:06:14.705Z,101014.43
2023-04-21T06:08:42.783Z,101020.64
2023-04-21T06:11:10.917Z,101027.15
2023-04-21T06:13:39.538Z,101018.95
2023-04-21T06:16:09.031Z,101018.84
2023-04-21T06:18:37.144Z,101025.05
2023-04-21T06:21:05.654Z,101020.19
2023-04-21T06:23:33.606Z,101028.91
2023-04-21T06:26:06.547Z,101030.81
2023-04-21T06:28:35.305Z,101027.31
2023-04-21T06:31:04.910Z,101020.88
2023-04-21T06:33:34.957Z,101013.26
2023-04-21T06:36:03.094Z,101020.84
2023-04-21T06:38:31.061Z,101015.64
2023-04-21T06:40:59.131Z,101008.80
2023-04-21T06:43:27.143Z,101009.07
2023-04-21T06:45:55.148Z,101009.56
2023-04-21T06:48:23.225Z,101012.53
2023-04-21T06:50:51.329Z,101012.50
2023-04-21T06:53:22.986Z,101028.91
2023-04-21T06:55:50.998Z,101020.64
2023-04-21T06:58:21.164Z,101026.82
2023-04-21T07:00:49.533Z,101026.10
2023-04-21T07:03:17.837Z,101021.92
2023-04-21T07:05:45.953Z,101005.73
2023-04-21T07:08:14.039Z,101005.21
2023-04-21T07:10:42.295Z,100998.02
2023-04-21T07:13:10.469Z,100996.84
2023-04-21T07:15:38.397Z,100988.50
2023-04-21T07:18:06.537Z,100983.70
2023-04-21T07:20:34.580Z,100983.73
2023-04-21T07:23:02.682Z,100988.11
2023-04-21T07:25:30.677Z,100987.13
2023-04-21T07:27:58.795Z,100989.13
2023-04-21T07:30:26.914Z,100986.51
2023-04-21T07:32:54.916Z,100985.85
2023-04-21T07:35:23.012Z,100979.02
2023-04-21T07:37:51.042Z,100983.77
2023-04-21T07:40:19.008Z,100971.20
2023-04-21T07:42:47.041Z,100973.20
2023-04-21T07:45:15.158Z,100970.36
2023-04-21T07:47:43.164Z,100972.16
2023-04-21T07:50:11.744Z,100971.27
2023-04-21T07:52:39.749Z,100972.41
2023-04-21T07:55:08.313Z,100964.21
2023-04-21T07:57:39.800Z,100970.20
2023-04-21T08:00:08.628Z,100968.27
2023-04-21T08:02:36.787Z,100964.44
2023-04-21T08:05:04.940Z,100963.20
2023-04-21T08:07:33.225Z,100967.67
2023-04-21T08:10:01.588Z,100968.85
2023-04-21T08:12:29.633Z,100972.29
2023-04-21T08:14:57.569Z,100976.41
2023-04-21T08:17:25.687Z,100972.84
2023-04-21T08:19:53.790Z,100977.16
2023-04-21T08:22:22.400Z,100980.16
2023-04-21T08:24:50.367Z,100968.66
2023-04-21T08:27:18.519Z,100974.45
2023-04-21T08:29:46.864Z,100961.23
2023-04-21T08:32:14.981Z,100964.54
2023-04-21T08:34:43.019Z,100963.23
2023-04-21T08:37:11.048Z,100952.05
2023-04-21T08:39:38.953Z,100955.35
2023-04-21T08:42:07.154Z,100948.48
2023-04-21T08:44:35.127Z,100956.20
2023-04-21T08:47:03.121Z,100961.34
2023-04-21T08:49:32.922Z,100954.37
2023-04-21T08:52:02.100Z,100941.26
2023-04-21T08:54:30.255Z,100946.78
2023-04-21T08:57:07.919Z,100950.25
2023-04-21T08:59:40.039Z,100954.04
2023-04-21T09:02:09.102Z,100954.44
2023-04-21T09:04:39.989Z,100960.55
2023-04-21T09:07:10.218Z,100957.60
2023-04-21T09:10:04.745Z,100961.92
2023-04-21T09:12:32.844Z,100972.38
2023-04-21T09:15:02.261Z,100966.53
2023-04-21T09:17:34.010Z,100951.72
2023-04-21T09:20:18.658Z,100966.01
2023-04-21T09:22:46.908Z,100955.58
2023-04-21T09:25:19.131Z,100950.28
2023-04-21T09:27:48.193Z,100953.29
2023-04-21T09:30:19.972Z,100945.64
2023-04-21T09:32:48.081Z,100946.16
2023-04-21T09:35:16.186Z,100935.02
2023-04-21T09:37:47.433Z,100944.13
2023-04-21T09:40:16.593Z,100948.84
2023-04-21T09:42:45.192Z,100942.23
2023-04-21T09:47:44.508Z,100940.38
2023-04-21T09:50:20.632Z,100939.46
2023-04-21T09:52:57.936Z,100948.55
2023-04-21T09:55:30.929Z,100937.43
2023-04-21T09:58:03.321Z,100934.33
2023-04-21T10:00:32.428Z,100929.32
2023-04-21T10:03:00.399Z,100933.77
2023-04-21T10:05:28.899Z,100937.07
2023-04-21T10:07:56.958Z,100935.44
2023-04-21T10:10:30.268Z,100935.77
2023-04-21T10:12:58.459Z,100926.64
2023-04-21T10:15:40.202Z,100920.40
2023-04-21T10:18:15.928Z,100914.67
2023-04-21T10:21:02.956Z,100907.65
2023-04-21T10:23:31.536Z,100920.33
2023-04-21T10:26:03.769Z,100916.48
2023-04-21T10:29:03.240Z,100911.27
2023-04-21T10:31:37.988Z,100910.42
2023-04-21T10:34:09.407Z,100906.24
2023-04-21T10:36:44.452Z,100902.71
2023-04-21T10:39:18.021Z,100900.29
2023-04-21T10:41:47.683Z,100894.86
2023-04-21T10:44:15.961Z,100893.39
2023-04-21T10:46:48.084Z,100894.66
2023-04-21T10:49:28.811Z,100889.86
2023-04-21T10:51:59.826Z,100903.59
2023-04-21T10:54:29.029Z,100901.17
2023-04-21T10:56:57.655Z,100899.96
2023-04-21T10:59:26.217Z,100897.54
2023-04-21T11:01:54.356Z,100901.70
2023-04-21T11:04:23.964Z,100899.99
2023-04-21T11:07:14.705Z,100893.00
2023-04-21T11:09:43.001Z,100885.18
2023-04-21T11:12:12.493Z,100877.01
2023-04-21T11:14:42.109Z,100872.86
2023-04-21T11:17:14.410Z,100862.07
2023-04-21T11:19:42.539Z,100878.25
2023-04-21T11:22:10.631Z,100873.28
2023-04-21T11:24:38.952Z,100873.28
2023-04-21T11:27:09.984Z,100868.31
2023-04-21T11:29:37.971Z,100873.28
2023-04-21T11:32:08.380Z,100872.04
2023-04-21T11:34:39.428Z,100871.62
2023-04-21T11:37:11.306Z,100869.98
2023-04-21T11:39:42.034Z,100865.40
2023-04-21T11:42:10.100Z,100859.62
2023-04-21T11:44:43.194Z,100859.19
2023-04-21T11:47:18.713Z,100865.44
2023-04-21T11:49:52.064Z,100858.77
2023-04-21T11:52:35.888Z,100846.77
2023-04-21T11:55:17.585Z,100857.91
2023-04-21T11:57:45.633Z,100848.37
2023-04-21T12:00:17.517Z,100842.19
2023-04-21T12:02:45.723Z,100849.61
2023-04-21T12:05:14.568Z,100853.77
2023-04-21T12:07:44.432Z,100843.79
2023-04-21T12:10:16.002Z,100846.24
2023-04-21T12:12:44.091Z,100847.02
2023-04-21T12:15:13.146Z,100838.36
2023-04-21T12:17:45.090Z,100838.79
2023-04-21T12:20:13.949Z,100854.94
2023-04-21T12:22:41.953Z,100852.88
2023-04-21T12:25:12.862Z,100854.05
2023-04-21T12:30:22.146Z,100859.42
2023-04-21T12:32:50.261Z,100843.70
2023-04-21T12:35:18.425Z,100849.05
2023-04-21T12:37:46.648Z,100848.79
2023-04-21T12:40:14.747Z,100849.64
2023-04-21T12:42:42.753Z,100854.19
2023-04-21T12:45:11.074Z,100857.49
2023-04-21T12:47:39.308Z,100862.88
2023-04-21T12:50:07.973Z,100860.40
2023-04-21T12:52:36.196Z,100858.73
2023-04-21T12:55:04.231Z,100861.25
2023-04-21T12:57:33.279Z,100867.49
2023-04-21T13:00:02.067Z,100863.77
2023-04-21T13:02:32.220Z,100854.19
2023-04-21T13:05:00.830Z,100861.19
2023-04-21T13:07:32.669Z,100861.97
2023-04-21T13:10:00.737Z,100864.42
2023-04-21T13:12:28.701Z,100853.60
2023-04-21T13:14:56.777Z,100856.02
2023-04-21T13:17:24.799Z,100849.84
2023-04-21T13:19:52.864Z,100849.41
2023-04-21T13:22:20.941Z,100844.41
2023-04-21T13:24:49.035Z,100844.80
2023-04-21T13:27:17.197Z,100853.83
2023-04-21T13:29:45.239Z,100858.34
2023-04-21T13:32:13.261Z,100864.55
2023-04-21T13:34:41.247Z,100876.52
2023-04-21T13:37:12.216Z,100879.79
2023-04-21T13:39:40.546Z,100868.12
2023-04-21T13:42:09.538Z,100868.48
2023-04-21T13:44:37.531Z,100869.29
2023-04-21T13:47:07.499Z,100864.39
2023-04-21T13:49:36.958Z,100852.75
2023-04-21T13:52:04.992Z,100854.02
2023-04-21T13:54:33.377Z,100846.14
2023-04-21T13:57:01.636Z,100845.33
2023-04-21T13:59:29.855Z,100835.81
2023-04-21T14:01:58.184Z,100842.35
2023-04-21T14:04:26.548Z,100824.14
2023-04-21T14:06:54.752Z,100827.84
2023-04-21T14:09:22.958Z,100833.98
2023-04-21T14:11:50.977Z,100845.13
2023-04-21T14:14:31.395Z,100847.98
2023-04-21T14:17:05.724Z,100837.64
2023-04-21T14:19:34.049Z,100839.38
2023-04-21T14:22:02.382Z,100840.75
2023-04-21T14:24:31.648Z,100838.49
2023-04-21T14:27:00.538Z,100829.96
2023-04-21T14:29:28.688Z,100828.39
2023-04-21T14:31:59.146Z,100834.63
2023-04-21T14:34:27.513Z,100826.79
2023-04-21T14:36:55.876Z,100826.40
2023-04-21T14:39:23.946Z,100828.42
2023-04-21T14:41:52.290Z,100828.78
2023-04-21T14:44:20.421Z,100830.41
2023-04-21T14:46:57.464Z,100832.84
2023-04-21T14:49:29.467Z,100825.68
2023-04-21T14:51:57.564Z,100820.58
2023-04-21T14:54:25.563Z,100822.54
2023-04-21T14:57:03.430Z,100820.74
2023-04-21T14:59:38.854Z,100814.85
2023-04-21T15:02:07.094Z,100820.09
2023-04-21T15:04:35.468Z,100816.26
2023-04-21T15:07:03.627Z,100811.55
2023-04-21T15:09:31.763Z,100805.73
2023-04-21T15:11:59.766Z,100805.66
2023-04-21T15:14:27.819Z,100798.11
2023-04-21T15:16:55.916Z,100803.34
2023-04-21T15:19:25.560Z,100793.30
2023-04-21T15:21:53.871Z,100792.75
2023-04-21T15:24:22.005Z,100797.20
2023-04-21T15:26:50.126Z,100800.04
2023-04-21T15:29:18.575Z,100797.10
2023-04-21T15:31:46.682Z,100804.42
2023-04-21T15:34:14.680Z,100802.73
2023-04-21T15:36:42.715Z,100808.87
2023-04-21T15:39:15.092Z,100801.80
2023-04-21T15:41:43.298Z,100811.75
2023-04-21T15:44:11.419Z,100809.20
2023-04-21T15:46:39.529Z,100809.98
2023-04-21T15:49:07.710Z,100813.19
2023-04-21T15:51:36.438Z,100804.49
2023-04-21T15:54:05.454Z,100805.27
2023-04-21T15:56:33.582Z,100798.24
2023-04-21T15:59:01.745Z,100799.03
2023-04-21T16:01:29.905Z,100798.15
2023-04-21T16:03:58.103Z,100799.72
2023-04-21T16:06:26.599Z,100801.68
2023-04-21T16:08:54.679Z,100801.22
2023-04-21T16:11:24.915Z,100792.95
2023-04-21T16:13:53.328Z,100795.73
2023-04-21T16:16:21.513Z,100803.90
2023-04-21T16:18:49.750Z,100796.91
2023-04-21T16:21:17.813Z,100798.87
2023-04-21T16:23:45.869Z,100791.02
2023-04-21T16:26:13.903Z,100793.90
2023-04-21T16:28:41.967Z,100796.77
2023-04-21T16:31:10.093Z,100800.44
2023-04-21T16:33:38.161Z,100799.55
2023-04-21T16:36:06.559Z,100800.83
2023-04-21T16:38:34.815Z,100802.37
2023-04-21T16:41:02.900Z,100801.88
2023-04-21T16:43:31.165Z,100801.32
2023-04-21T16:45:59.304Z,100802.46
2023-04-21T16:48:27.433Z,100798.34
2023-04-21T16:50:55.784Z,100812.56
2023-04-21T16:53:26.745Z,100815.87
2023-04-21T16:55:54.910Z,100814.88
2023-04-21T16:58:23.500Z,100818.16
2023-04-21T17:00:52.309Z,100815.61
2023-04-21T17:03:20.661Z,100816.75
2023-04-21T17:05:48.839Z,100818.29
2023-04-21T17:08:16.954Z,100812.37
2023-04-21T17:10:45.049Z,100812.70
2023-04-21T17:13:13.149Z,100804.39
2023-04-21T17:15:41.189Z,100813.38
2023-04-21T17:18:09.467Z,100805.96
2023-04-21T17:20:38.157Z,100809.16
2023-04-21T17:23:06.146Z,100805.66
2023-04-21T17:25:34.143Z,100801.09
2023-04-21T17:28:03.227Z,100806.38
2023-04-21T17:30:31.277Z,100802.13
2023-04-21T17:33:14.826Z,100797.55
2023-04-21T17:35:59.978Z,100802.46
2023-04-21T17:38:31.092Z,100810.18
2023-04-21T17:40:59.566Z,100805.17
2023-04-21T17:43:27.642Z,100807.63
2023-04-21T17:45:55.799Z,100807.53
2023-04-21T17:48:23.943Z,100811.88
2023-04-21T17:50:52.616Z,100817.53
2023-04-21T17:53:20.727Z,100816.26
2023-04-21T17:55:48.738Z,100816.16
2023-04-21T17:58:16.942Z,100808.77
2023-04-21T18:00:45.259Z,100805.02
2023-04-21T18:03:13.559Z,100815.57
2023-04-21T18:05:41.675Z,100825.41
2023-04-21T18:08:09.838Z,100821.72
2023-04-21T18:10:38.380Z,100822.38
2023-04-21T18:13:07.942Z,100822.27
2023-04-21T18:15:36.040Z,100818.02
2023-04-21T18:18:04.095Z,100816.36
2023-04-21T18:20:32.262Z,100825.74
2023-04-21T18:23:00.361Z,100830.65
2023-04-21T18:25:41.314Z,100821.13
2023-04-21T18:28:12.500Z,100824.63
2023-04-21T18:30:41.049Z,100814.30
2023-04-21T18:33:10.827Z,100824.86
2023-04-21T18:35:38.983Z,100822.73
2023-04-21T18:38:09.357Z,100829.66
2023-04-21T18:40:38.570Z,100828.03
2023-04-21T18:43:06.767Z,100822.54
2023-04-21T18:45:35.429Z,100824.99
2023-04-21T18:48:03.438Z,100833.49
2023-04-21T18:50:35.254Z,100829.24
2023-04-21T18:53:05.380Z,100836.11
2023-04-21T18:55:34.863Z,100840.62
2023-04-21T18:58:02.888Z,100841.37
2023-04-21T19:00:31.651Z,100841.37
2023-04-21T19:03:02.374Z,100845.36
2023-04-21T19:05:31.775Z,100847.74
2023-04-21T19:08:00.011Z,100846.02
2023-04-21T19:10:28.574Z,100854.16
2023-04-21T19:12:56.555Z,100854.41
2023-04-21T19:15:24.655Z,100851.84
2023-04-21T19:17:52.677Z,100847.65
2023-04-21T19:20:20.848Z,100849.31
2023-04-21T19:22:48.890Z,100849.22
2023-04-21T19:25:17.916Z,100853.66
2023-04-21T19:27:46.123Z,100860.95
2023-04-21T19:30:14.370Z,100852.23
2023-04-21T19:32:42.461Z,100861.58
2023-04-21T19:35:10.992Z,100861.48
2023-04-21T19:37:39.207Z,100858.14
2023-04-21T19:40:08.061Z,100855.66
2023-04-21T19:42:36.025Z,100856.48
2023-04-21T19:45:04.040Z,100865.44
2023-04-21T19:47:35.267Z,100862.46
2023-04-21T19:50:06.812Z,100860.34
2023-04-21T19:52:34.832Z,100863.93
2023-04-21T19:55:02.967Z,100864.32
2023-04-21T19:57:31.075Z,100864.68
2023-04-21T19:59:59.309Z,100866.22
2023-04-21T20:02:27.929Z,100865.66
2023-04-21T20:04:56.263Z,100877.86
2023-04-21T20:07:24.605Z,100877.86
2023-04-21T20:09:52.766Z,100867.49
2023-04-21T20:12:20.923Z,100876.09
2023-04-21T20:14:48.924Z,100887.08
2023-04-21T20:17:17.314Z,100882.08
2023-04-21T20:19:47.943Z,100882.80
2023-04-21T20:22:16.122Z,100892.60
2023-04-21T20:24:44.096Z,100886.39
2023-04-21T20:27:12.074Z,100886.79
2023-04-21T20:29:40.231Z,100884.63
2023-04-21T20:32:08.609Z,100894.80
2023-04-21T20:34:38.332Z,100891.00
2023-04-21T20:37:06.603Z,100890.87
2023-04-21T20:39:34.724Z,100890.41
2023-04-21T20:42:12.405Z,100886.72
2023-04-21T20:44:43.047Z,100884.92
2023-04-21T20:47:11.663Z,100886.36
2023-04-21T20:49:42.188Z,100883.88
2023-04-21T20:52:10.646Z,100891.16
2023-04-21T20:54:39.662Z,100903.33
2023-04-21T20:57:08.765Z,100903.23
2023-04-21T20:59:37.150Z,100895.35
2023-04-21T21:02:05.666Z,100907.05
2023-04-21T21:04:34.106Z,100902.38
2023-04-21T21:07:03.164Z,100911.70
2023-04-21T21:09:31.764Z,100906.34
2023-04-21T21:11:59.860Z,100909.45
2023-04-21T21:14:27.954Z,100908.13
2023-04-21T21:16:56.779Z,100910.88
2023-04-21T21:19:24.938Z,100906.37
2023-04-21T21:21:52.927Z,100905.52
2023-04-21T21:24:21.004Z,100913.99
2023-04-21T21:26:49.027Z,100913.50
2023-04-21T21:29:17.084Z,100917.91
2023-04-21T21:31:45.565Z,100926.02
2023-04-21T21:34:13.560Z,100915.30
2023-04-21T21:36:41.749Z,100930.80
2023-04-21T21:39:11.274Z,100921.28
2023-04-21T21:41:39.749Z,100920.76
2023-04-21T21:44:09.057Z,100926.35
2023-04-21T21:46:37.624Z,100925.40
2023-04-21T21:49:05.730Z,100920.53
2023-04-21T21:51:33.750Z,100918.83
2023-04-21T21:54:01.909Z,100923.27
2023-04-21T21:56:29.992Z,100914.31
2023-04-21T21:58:57.970Z,100917.65
2023-04-21T22:01:26.034Z,100905.23
2023-04-21T22:03:55.127Z,100915.00
2023-04-21T22:06:28.005Z,100915.85
2023-04-21T22:08:56.201Z,100917.88
2023-04-21T22:11:24.437Z,100911.66
2023-04-21T22:13:52.846Z,100910.00
2023-04-21T22:16:20.821Z,100921.45
2023-04-21T22:18:49.624Z,100917.75
2023-04-21T22:21:17.644Z,100922.16
2023-04-21T22:23:45.760Z,100918.80
2023-04-21T22:26:13.784Z,100915.13
2023-04-21T22:28:43.099Z,100907.61
2023-04-21T22:31:11.745Z,100916.21
2023-04-21T22:33:39.738Z,100913.20
2023-04-21T22:36:09.816Z,100917.62
2023-04-21T22:38:38.048Z,100915.10
2023-04-21T22:41:06.288Z,100916.31
2023-04-21T22:43:34.407Z,100912.95
2023-04-21T22:46:03.791Z,100913.20
2023-04-21T22:48:33.970Z,100920.07
2023-04-21T22:51:02.931Z,100916.38
2023-04-21T22:53:30.919Z,100913.89
2023-04-21T22:55:58.933Z,100917.91
2023-04-21T22:58:27.673Z,100915.43
2023-04-21T23:00:55.689Z,100916.48
2023-04-21T23:03:24.435Z,100911.60
2023-04-21T23:05:52.736Z,100918.01
2023-04-21T23:08:20.757Z,100910.66
2023-04-21T23:10:49.049Z,100909.18
2023-04-21T23:13:17.166Z,100910.39
2023-04-21T23:15:45.273Z,100904.54
2023-04-21T23:18:13.400Z,100904.05
2023-04-21T23:20:41.358Z,100914.55
2023-04-21T23:23:09.331Z,100902.25
2023-04-21T23:25:37.552Z,100904.51
2023-04-21T23:28:05.617Z,100904.51
2023-04-21T23:30:33.666Z,100903.20
2023-04-21T23:33:02.228Z,100901.86
2023-04-21T23:35:30.436Z,100911.63
2023-04-21T23:37:58.523Z,100915.52
2023-04-21T23:40:26.694Z,100906.11
2023-04-21T23:42:54.663Z,100914.19
2023-04-21T23:45:22.618Z,100910.03
2023-04-21T23:47:50.656Z,100909.90
2023-04-21T23:50:18.728Z,100902.02
2023-04-21T23:52:46.811Z,100908.92
2023-04-21T23:55:14.870Z,100911.27
2023-04-21T23:57:42.888Z,100906.27
